CheckWX is a tool to help pilots better visualize weather data.  It is not intended as a substitute for an official pre-flight weather briefing.

15:14:43 UTC

KOLF METAR
L M Clayton Airport
Wolf Point, Montana, USA
Current

22 mins ago

KOLF 261453Z AUTO 07017G22KT 10SM OVC007 10/07 A3002 RMK AO2 SLP170 T01000067 53007
Observed
May-26 @ 14:53 UTC
Wind
  • 070° at 17 KTS
  • Gusting to 22 KTS
Visibility
10 SM
Flight Rules
IFR
Cloud Levels
  • Overcast at 700' AGL
Temperature
10°C / 50°F
Dewpoint
C / 45°F
Humidity
82%
Altimeter
30.02" Hg
Pressure
1016.62 hPa
Previous

1 hour ago

KOLF 261353Z AUTO 06015KT 7SM OVC008 11/08 A3001 RMK AO2 SLP162 T01060078
Observed
May-26 @ 13:53 UTC
Wind
  • 060° at 15 KTS
Visibility
7 SM
Flight Rules
IFR
Cloud Levels
  • Overcast at 800' AGL
Temperature
11°C / 52°F
Dewpoint
C / 46°F
Humidity
82%
Altimeter
30.01" Hg
Pressure
1016.22 hPa
Previous

2 hours ago

KOLF 261253Z AUTO 06015KT 5SM HZ OVC008 11/08 A3000 RMK AO2 SLP159 T01060078
Observed
May-26 @ 12:53 UTC
Wind
  • 060° at 15 KTS
Visibility
5 SM
Flight Rules
IFR
Conditions
Haze
Cloud Levels
  • Overcast at 800' AGL
Temperature
11°C / 52°F
Dewpoint
C / 46°F
Humidity
82%
Altimeter
30" Hg
Pressure
1015.92 hPa